East Hickory, Pennsylvania
Current Conditions -  °F | °C
As of 10:55 PM on Sunday 23 Nov 2014 (Local Time) from KFKL Reporting Station
Overcast Overcast  
Wind Chill: 40°   Ceiling: 9500
Heat Index: 46°   Visibility: 10mi
Dew Point: 43°   Wind: 16mph
Humidity: 87%   Direction: 120°ESE
Pressure: 29.6"   Gusts: 23mph
Location:  41.58°N, 79.4°W
Report Text: KFKL 240355Z AUTO 12014G20KT 10SM OVC095 08/06 A2960 RMK AO1 P0004
Loading
Personal Weather Stations






























Interactive Weather Map New forecast layout! Learn more

10-Day Weather Forecast

Advertisements
Track Severe Weather on mobile